sensor_id;sensor_type;location;lat;lon;timestamp;temperature;humidity
19348;DHT22;9810;52.480;9.806;2023-04-10T00:00:53;4.40;99.90
19348;DHT22;9810;52.480;9.806;2023-04-10T00:03:22;4.40;99.90
19348;DHT22;9810;52.480;9.806;2023-04-10T00:05:49;4.40;99.90
19348;DHT22;9810;52.480;9.806;2023-04-10T00:08:21;4.40;99.90
19348;DHT22;9810;52.480;9.806;2023-04-10T00:10:48;4.50;99.90
19348;DHT22;9810;52.480;9.806;2023-04-10T00:13:16;4.50;99.90
19348;DHT22;9810;52.480;9.806;2023-04-10T00:15:43;4.50;99.90
19348;DHT22;9810;52.480;9.806;2023-04-10T00:18:11;4.30;99.90
19348;DHT22;9810;52.480;9.806;2023-04-10T00:20:38;4.30;99.90
19348;DHT22;9810;52.480;9.806;2023-04-10T00:23:06;4.20;99.90
19348;DHT22;9810;52.480;9.806;2023-04-10T00:25:34;4.30;99.90
19348;DHT22;9810;52.480;9.806;2023-04-10T00:28:02;4.30;99.90
19348;DHT22;9810;52.480;9.806;2023-04-10T00:30:29;4.20;99.90
19348;DHT22;9810;52.480;9.806;2023-04-10T00:32:57;4.30;99.90
19348;DHT22;9810;52.480;9.806;2023-04-10T00:35:24;4.30;99.90
19348;DHT22;9810;52.480;9.806;2023-04-10T00:37:51;4.10;99.90
19348;DHT22;9810;52.480;9.806;2023-04-10T00:40:19;4.00;99.90
19348;DHT22;9810;52.480;9.806;2023-04-10T00:42:49;4.20;99.90
19348;DHT22;9810;52.480;9.806;2023-04-10T00:45:16;4.50;99.90
19348;DHT22;9810;52.480;9.806;2023-04-10T00:47:43;4.50;99.90
19348;DHT22;9810;52.480;9.806;2023-04-10T00:50:11;4.50;99.90
19348;DHT22;9810;52.480;9.806;2023-04-10T00:52:38;4.50;99.90
19348;DHT22;9810;52.480;9.806;2023-04-10T00:55:07;4.50;99.90
19348;DHT22;9810;52.480;9.806;2023-04-10T00:57:35;4.40;99.90
19348;DHT22;9810;52.480;9.806;2023-04-10T01:00:05;4.30;99.90
19348;DHT22;9810;52.480;9.806;2023-04-10T01:02:32;4.10;99.90
19348;DHT22;9810;52.480;9.806;2023-04-10T01:04:59;4.00;99.90
19348;DHT22;9810;52.480;9.806;2023-04-10T01:07:37;4.00;99.90
19348;DHT22;9810;52.480;9.806;2023-04-10T01:10:19;4.00;99.90
19348;DHT22;9810;52.480;9.806;2023-04-10T01:12:58;4.00;99.90
19348;DHT22;9810;52.480;9.806;2023-04-10T01:15:36;3.90;99.90
19348;DHT22;9810;52.480;9.806;2023-04-10T01:18:08;4.00;99.90
19348;DHT22;9810;52.480;9.806;2023-04-10T01:20:39;4.00;99.90
19348;DHT22;9810;52.480;9.806;2023-04-10T01:26:09;4.00;99.90
19348;DHT22;9810;52.480;9.806;2023-04-10T01:29:00;4.00;99.90
19348;DHT22;9810;52.480;9.806;2023-04-10T01:31:33;4.00;99.90
19348;DHT22;9810;52.480;9.806;2023-04-10T01:34:16;4.00;99.90
19348;DHT22;9810;52.480;9.806;2023-04-10T01:36:48;4.00;99.90
19348;DHT22;9810;52.480;9.806;2023-04-10T01:39:18;3.90;99.90
19348;DHT22;9810;52.480;9.806;2023-04-10T01:41:47;3.90;99.90
19348;DHT22;9810;52.480;9.806;2023-04-10T01:44:21;3.90;99.90
19348;DHT22;9810;52.480;9.806;2023-04-10T01:46:51;3.90;99.90
19348;DHT22;9810;52.480;9.806;2023-04-10T01:49:19;4.00;99.90
19348;DHT22;9810;52.480;9.806;2023-04-10T01:51:47;3.90;99.90
19348;DHT22;9810;52.480;9.806;2023-04-10T01:54:16;3.90;99.90
19348;DHT22;9810;52.480;9.806;2023-04-10T01:56:43;3.90;99.90
19348;DHT22;9810;52.480;9.806;2023-04-10T01:59:11;3.90;99.90
19348;DHT22;9810;52.480;9.806;2023-04-10T02:01:40;3.90;99.90
19348;DHT22;9810;52.480;9.806;2023-04-10T02:04:08;3.90;99.90
19348;DHT22;9810;52.480;9.806;2023-04-10T02:06:42;3.90;99.90
19348;DHT22;9810;52.480;9.806;2023-04-10T02:09:17;3.90;99.90
19348;DHT22;9810;52.480;9.806;2023-04-10T02:11:50;3.80;99.90
19348;DHT22;9810;52.480;9.806;2023-04-10T02:14:21;3.80;99.90
19348;DHT22;9810;52.480;9.806;2023-04-10T02:16:55;3.80;99.90
19348;DHT22;9810;52.480;9.806;2023-04-10T02:19:24;3.80;99.90
19348;DHT22;9810;52.480;9.806;2023-04-10T02:21:53;3.80;99.90
19348;DHT22;9810;52.480;9.806;2023-04-10T02:24:21;3.70;99.90
19348;DHT22;9810;52.480;9.806;2023-04-10T02:26:50;3.70;99.90
19348;DHT22;9810;52.480;9.806;2023-04-10T02:29:18;3.70;99.90
19348;DHT22;9810;52.480;9.806;2023-04-10T02:31:45;3.70;99.90
19348;DHT22;9810;52.480;9.806;2023-04-10T02:34:15;3.70;99.90
19348;DHT22;9810;52.480;9.806;2023-04-10T02:36:42;3.60;99.90
19348;DHT22;9810;52.480;9.806;2023-04-10T02:39:09;3.70;99.90
19348;DHT22;9810;52.480;9.806;2023-04-10T02:41:36;3.70;99.90
19348;DHT22;9810;52.480;9.806;2023-04-10T02:44:03;3.70;99.90
19348;DHT22;9810;52.480;9.806;2023-04-10T02:46:31;3.80;99.90
19348;DHT22;9810;52.480;9.806;2023-04-10T02:48:58;3.80;99.90
19348;DHT22;9810;52.480;9.806;2023-04-10T02:51:27;3.80;99.90
19348;DHT22;9810;52.480;9.806;2023-04-10T02:53:55;4.00;99.90
19348;DHT22;9810;52.480;9.806;2023-04-10T02:56:22;4.00;99.90
19348;DHT22;9810;52.480;9.806;2023-04-10T02:58:50;4.00;99.90
19348;DHT22;9810;52.480;9.806;2023-04-10T03:01:17;4.00;99.90
19348;DHT22;9810;52.480;9.806;2023-04-10T03:03:46;4.10;99.90
19348;DHT22;9810;52.480;9.806;2023-04-10T03:06:14;4.20;99.90
19348;DHT22;9810;52.480;9.806;2023-04-10T03:08:42;4.30;99.90
19348;DHT22;9810;52.480;9.806;2023-04-10T03:11:10;4.40;99.90
19348;DHT22;9810;52.480;9.806;2023-04-10T03:13:37;4.60;99.90
19348;DHT22;9810;52.480;9.806;2023-04-10T03:16:05;4.40;99.90
19348;DHT22;9810;52.480;9.806;2023-04-10T03:18:33;4.30;99.90
19348;DHT22;9810;52.480;9.806;2023-04-10T03:21:00;4.30;99.90
19348;DHT22;9810;52.480;9.806;2023-04-10T03:23:28;4.20;99.90
19348;DHT22;9810;52.480;9.806;2023-04-10T03:25:56;4.20;99.90
19348;DHT22;9810;52.480;9.806;2023-04-10T03:28:23;4.20;99.90
19348;DHT22;9810;52.480;9.806;2023-04-10T03:30:52;4.10;99.90
19348;DHT22;9810;52.480;9.806;2023-04-10T03:33:19;4.20;99.90
19348;DHT22;9810;52.480;9.806;2023-04-10T03:35:46;4.10;99.90
19348;DHT22;9810;52.480;9.806;2023-04-10T03:38:14;4.30;99.90
19348;DHT22;9810;52.480;9.806;2023-04-10T03:40:41;4.30;99.90
19348;DHT22;9810;52.480;9.806;2023-04-10T03:43:10;4.20;99.90
19348;DHT22;9810;52.480;9.806;2023-04-10T03:45:37;4.40;99.90
19348;DHT22;9810;52.480;9.806;2023-04-10T03:48:05;4.30;99.90
19348;DHT22;9810;52.480;9.806;2023-04-10T03:50:32;4.30;99.90
19348;DHT22;9810;52.480;9.806;2023-04-10T03:52:59;4.30;99.90
19348;DHT22;9810;52.480;9.806;2023-04-10T03:55:27;4.40;99.90
19348;DHT22;9810;52.480;9.806;2023-04-10T03:57:54;4.40;99.90
19348;DHT22;9810;52.480;9.806;2023-04-10T04:00:24;4.30;99.90
19348;DHT22;9810;52.480;9.806;2023-04-10T04:02:51;4.40;99.90
19348;DHT22;9810;52.480;9.806;2023-04-10T04:05:19;4.30;99.90
19348;DHT22;9810;52.480;9.806;2023-04-10T04:07:47;4.40;99.90
19348;DHT22;9810;52.480;9.806;2023-04-10T04:10:14;4.50;99.90
19348;DHT22;9810;52.480;9.806;2023-04-10T04:12:41;4.40;99.90
19348;DHT22;9810;52.480;9.806;2023-04-10T04:15:09;4.40;99.90
19348;DHT22;9810;52.480;9.806;2023-04-10T04:17:38;4.40;99.90
19348;DHT22;9810;52.480;9.806;2023-04-10T04:20:06;4.40;99.90
19348;DHT22;9810;52.480;9.806;2023-04-10T04:22:34;4.40;99.90
19348;DHT22;9810;52.480;9.806;2023-04-10T04:25:01;4.40;99.90
19348;DHT22;9810;52.480;9.806;2023-04-10T04:27:33;4.40;99.90
19348;DHT22;9810;52.480;9.806;2023-04-10T04:30:00;4.40;99.90
19348;DHT22;9810;52.480;9.806;2023-04-10T04:32:28;4.40;99.90
19348;DHT22;9810;52.480;9.806;2023-04-10T04:34:56;4.30;99.90
19348;DHT22;9810;52.480;9.806;2023-04-10T04:37:24;4.30;99.90
19348;DHT22;9810;52.480;9.806;2023-04-10T04:39:51;4.30;99.90
19348;DHT22;9810;52.480;9.806;2023-04-10T04:42:18;4.30;99.90
19348;DHT22;9810;52.480;9.806;2023-04-10T04:44:45;4.30;99.90
19348;DHT22;9810;52.480;9.806;2023-04-10T04:47:12;4.40;99.90
19348;DHT22;9810;52.480;9.806;2023-04-10T04:49:40;4.50;99.90
19348;DHT22;9810;52.480;9.806;2023-04-10T04:52:08;4.60;99.90
19348;DHT22;9810;52.480;9.806;2023-04-10T04:54:36;4.70;99.90
19348;DHT22;9810;52.480;9.806;2023-04-10T04:57:03;4.60;99.90
19348;DHT22;9810;52.480;9.806;2023-04-10T04:59:30;4.60;99.90
19348;DHT22;9810;52.480;9.806;2023-04-10T05:01:58;4.70;99.90
19348;DHT22;9810;52.480;9.806;2023-04-10T05:04:25;4.70;99.90
19348;DHT22;9810;52.480;9.806;2023-04-10T05:06:52;4.70;99.90
19348;DHT22;9810;52.480;9.806;2023-04-10T05:09:21;4.80;99.90
19348;DHT22;9810;52.480;9.806;2023-04-10T05:11:48;4.90;99.90
19348;DHT22;9810;52.480;9.806;2023-04-10T05:14:16;4.90;99.90
19348;DHT22;9810;52.480;9.806;2023-04-10T05:16:43;5.00;99.90
19348;DHT22;9810;52.480;9.806;2023-04-10T05:19:10;5.00;99.90
19348;DHT22;9810;52.480;9.806;2023-04-10T05:21:38;5.10;99.90
19348;DHT22;9810;52.480;9.806;2023-04-10T05:24:05;5.20;99.90
19348;DHT22;9810;52.480;9.806;2023-04-10T05:26:34;5.20;99.90
19348;DHT22;9810;52.480;9.806;2023-04-10T05:29:01;5.30;99.90
19348;DHT22;9810;52.480;9.806;2023-04-10T05:31:29;5.40;99.90
19348;DHT22;9810;52.480;9.806;2023-04-10T05:33:56;5.50;99.90
19348;DHT22;9810;52.480;9.806;2023-04-10T05:36:23;5.70;99.90
19348;DHT22;9810;52.480;9.806;2023-04-10T05:38:51;5.70;99.90
19348;DHT22;9810;52.480;9.806;2023-04-10T05:41:18;5.90;99.90
19348;DHT22;9810;52.480;9.806;2023-04-10T05:43:48;6.00;99.90
19348;DHT22;9810;52.480;9.806;2023-04-10T05:46:15;6.10;99.90
19348;DHT22;9810;52.480;9.806;2023-04-10T05:48:43;6.10;99.90
19348;DHT22;9810;52.480;9.806;2023-04-10T05:51:10;6.20;99.90
19348;DHT22;9810;52.480;9.806;2023-04-10T05:53:37;6.40;99.90
19348;DHT22;9810;52.480;9.806;2023-04-10T05:56:05;6.40;99.90
19348;DHT22;9810;52.480;9.806;2023-04-10T05:58:32;6.60;99.90
19348;DHT22;9810;52.480;9.806;2023-04-10T06:01:01;6.80;99.90
19348;DHT22;9810;52.480;9.806;2023-04-10T06:03:28;6.80;99.90
19348;DHT22;9810;52.480;9.806;2023-04-10T06:05:56;6.90;99.90
19348;DHT22;9810;52.480;9.806;2023-04-10T06:08:23;7.00;99.90
19348;DHT22;9810;52.480;9.806;2023-04-10T06:10:50;7.00;99.90
19348;DHT22;9810;52.480;9.806;2023-04-10T06:13:18;7.20;99.90
19348;DHT22;9810;52.480;9.806;2023-04-10T06:15:45;7.30;99.90
19348;DHT22;9810;52.480;9.806;2023-04-10T06:18:14;7.40;99.90
19348;DHT22;9810;52.480;9.806;2023-04-10T06:20:41;7.70;99.90
19348;DHT22;9810;52.480;9.806;2023-04-10T06:23:08;7.80;99.90
19348;DHT22;9810;52.480;9.806;2023-04-10T06:25:36;8.00;99.90
19348;DHT22;9810;52.480;9.806;2023-04-10T06:28:03;8.00;99.90
19348;DHT22;9810;52.480;9.806;2023-04-10T06:30:31;8.10;99.90
19348;DHT22;9810;52.480;9.806;2023-04-10T06:32:59;8.20;99.90
19348;DHT22;9810;52.480;9.806;2023-04-10T06:35:28;8.20;99.90
19348;DHT22;9810;52.480;9.806;2023-04-10T06:37:55;8.20;99.90
19348;DHT22;9810;52.480;9.806;2023-04-10T06:40:23;8.20;99.90
19348;DHT22;9810;52.480;9.806;2023-04-10T06:42:50;8.10;99.90
19348;DHT22;9810;52.480;9.806;2023-04-10T06:45:17;8.40;99.90
19348;DHT22;9810;52.480;9.806;2023-04-10T06:47:45;8.40;99.90
19348;DHT22;9810;52.480;9.806;2023-04-10T06:50:12;8.50;99.90
19348;DHT22;9810;52.480;9.806;2023-04-10T06:52:42;8.50;99.90
19348;DHT22;9810;52.480;9.806;2023-04-10T06:55:09;8.70;99.90
19348;DHT22;9810;52.480;9.806;2023-04-10T06:57:37;8.90;99.90
19348;DHT22;9810;52.480;9.806;2023-04-10T07:00:06;9.00;99.90
19348;DHT22;9810;52.480;9.806;2023-04-10T07:02:34;9.30;99.90
19348;DHT22;9810;52.480;9.806;2023-04-10T07:05:01;9.50;99.90
19348;DHT22;9810;52.480;9.806;2023-04-10T07:07:28;9.70;99.90
19348;DHT22;9810;52.480;9.806;2023-04-10T07:09:57;9.80;99.90
19348;DHT22;9810;52.480;9.806;2023-04-10T07:12:24;9.80;99.90
19348;DHT22;9810;52.480;9.806;2023-04-10T07:14:52;9.80;99.90
19348;DHT22;9810;52.480;9.806;2023-04-10T07:17:21;10.10;99.90
19348;DHT22;9810;52.480;9.806;2023-04-10T07:19:48;10.20;99.90
19348;DHT22;9810;52.480;9.806;2023-04-10T07:22:15;10.30;99.90
19348;DHT22;9810;52.480;9.806;2023-04-10T07:24:42;10.50;99.90
19348;DHT22;9810;52.480;9.806;2023-04-10T07:27:11;10.90;99.90
19348;DHT22;9810;52.480;9.806;2023-04-10T07:29:39;11.10;99.90
19348;DHT22;9810;52.480;9.806;2023-04-10T07:32:06;11.40;99.90
19348;DHT22;9810;52.480;9.806;2023-04-10T07:34:33;11.50;99.90
19348;DHT22;9810;52.480;9.806;2023-04-10T07:37:01;11.80;99.90
19348;DHT22;9810;52.480;9.806;2023-04-10T07:39:28;12.00;99.90
19348;DHT22;9810;52.480;9.806;2023-04-10T07:41:55;12.20;99.90
19348;DHT22;9810;52.480;9.806;2023-04-10T07:44:25;12.80;99.90
19348;DHT22;9810;52.480;9.806;2023-04-10T07:46:53;13.90;99.90
19348;DHT22;9810;52.480;9.806;2023-04-10T07:49:20;15.30;99.90
19348;DHT22;9810;52.480;9.806;2023-04-10T07:51:47;19.80;99.90
19348;DHT22;9810;52.480;9.806;2023-04-10T07:54:14;23.10;99.90
19348;DHT22;9810;52.480;9.806;2023-04-10T07:56:42;24.90;99.90
19348;DHT22;9810;52.480;9.806;2023-04-10T07:59:11;25.60;95.20
19348;DHT22;9810;52.480;9.806;2023-04-10T08:01:40;25.40;91.10
19348;DHT22;9810;52.480;9.806;2023-04-10T08:04:07;24.10;93.40
19348;DHT22;9810;52.480;9.806;2023-04-10T08:06:35;27.90;91.60
19348;DHT22;9810;52.480;9.806;2023-04-10T08:09:02;27.90;86.70
19348;DHT22;9810;52.480;9.806;2023-04-10T08:11:31;29.70;80.20
19348;DHT22;9810;52.480;9.806;2023-04-10T08:14:00;28.00;77.70
19348;DHT22;9810;52.480;9.806;2023-04-10T08:16:29;29.50;75.00
19348;DHT22;9810;52.480;9.806;2023-04-10T08:18:58;29.30;73.50
19348;DHT22;9810;52.480;9.806;2023-04-10T08:21:27;30.20;71.90
19348;DHT22;9810;52.480;9.806;2023-04-10T08:23:56;29.80;71.10
19348;DHT22;9810;52.480;9.806;2023-04-10T08:26:26;29.10;72.40
19348;DHT22;9810;52.480;9.806;2023-04-10T08:28:55;30.40;70.70
19348;DHT22;9810;52.480;9.806;2023-04-10T08:31:24;29.90;66.70
19348;DHT22;9810;52.480;9.806;2023-04-10T08:33:52;29.50;67.00
19348;DHT22;9810;52.480;9.806;2023-04-10T08:36:21;31.10;67.80
19348;DHT22;9810;52.480;9.806;2023-04-10T08:38:48;32.00;63.10
19348;DHT22;9810;52.480;9.806;2023-04-10T08:41:17;32.20;65.90
19348;DHT22;9810;52.480;9.806;2023-04-10T08:43:45;31.80;65.20
19348;DHT22;9810;52.480;9.806;2023-04-10T08:46:14;30.60;63.90
19348;DHT22;9810;52.480;9.806;2023-04-10T08:48:46;30.30;65.20
19348;DHT22;9810;52.480;9.806;2023-04-10T08:51:16;31.30;62.50
19348;DHT22;9810;52.480;9.806;2023-04-10T08:53:49;31.10;58.80
19348;DHT22;9810;52.480;9.806;2023-04-10T08:56:17;30.30;62.00
19348;DHT22;9810;52.480;9.806;2023-04-10T08:58:45;31.10;60.40
19348;DHT22;9810;52.480;9.806;2023-04-10T09:01:13;30.30;61.30
19348;DHT22;9810;52.480;9.806;2023-04-10T09:03:40;30.80;60.80
19348;DHT22;9810;52.480;9.806;2023-04-10T09:06:08;31.00;61.70
19348;DHT22;9810;52.480;9.806;2023-04-10T09:08:35;31.70;62.60
19348;DHT22;9810;52.480;9.806;2023-04-10T09:11:04;30.70;59.50
19348;DHT22;9810;52.480;9.806;2023-04-10T09:13:37;30.10;58.90
19348;DHT22;9810;52.480;9.806;2023-04-10T09:16:05;29.60;61.30
19348;DHT22;9810;52.480;9.806;2023-04-10T09:18:46;30.20;59.60
19348;DHT22;9810;52.480;9.806;2023-04-10T09:21:15;30.40;61.60
19348;DHT22;9810;52.480;9.806;2023-04-10T09:23:43;29.80;59.80
19348;DHT22;9810;52.480;9.806;2023-04-10T09:26:27;31.00;60.60
19348;DHT22;9810;52.480;9.806;2023-04-10T09:28:56;31.90;59.80
19348;DHT22;9810;52.480;9.806;2023-04-10T09:31:31;31.40;58.90
19348;DHT22;9810;52.480;9.806;2023-04-10T09:34:11;31.40;57.40
19348;DHT22;9810;52.480;9.806;2023-04-10T09:36:39;31.20;58.70
19348;DHT22;9810;52.480;9.806;2023-04-10T09:39:08;29.10;57.60
19348;DHT22;9810;52.480;9.806;2023-04-10T09:41:48;31.50;60.40
19348;DHT22;9810;52.480;9.806;2023-04-10T09:44:17;30.30;57.90
19348;DHT22;9810;52.480;9.806;2023-04-10T09:46:45;29.70;60.20
19348;DHT22;9810;52.480;9.806;2023-04-10T09:49:14;29.90;56.50
19348;DHT22;9810;52.480;9.806;2023-04-10T09:51:44;30.10;60.10
19348;DHT22;9810;52.480;9.806;2023-04-10T09:54:12;31.80;57.00
19348;DHT22;9810;52.480;9.806;2023-04-10T09:56:39;30.10;56.20
19348;DHT22;9810;52.480;9.806;2023-04-10T09:59:09;30.90;59.70
19348;DHT22;9810;52.480;9.806;2023-04-10T10:01:36;34.00;59.30
19348;DHT22;9810;52.480;9.806;2023-04-10T10:04:07;33.00;56.00
19348;DHT22;9810;52.480;9.806;2023-04-10T10:06:40;32.40;56.30
19348;DHT22;9810;52.480;9.806;2023-04-10T10:09:07;30.50;56.20
19348;DHT22;9810;52.480;9.806;2023-04-10T10:11:35;32.10;55.50
19348;DHT22;9810;52.480;9.806;2023-04-10T10:14:06;30.80;55.20
19348;DHT22;9810;52.480;9.806;2023-04-10T10:16:42;30.20;55.10
19348;DHT22;9810;52.480;9.806;2023-04-10T10:19:12;28.80;55.00
19348;DHT22;9810;52.480;9.806;2023-04-10T10:21:45;28.90;56.70
19348;DHT22;9810;52.480;9.806;2023-04-10T10:24:13;28.90;56.90
19348;DHT22;9810;52.480;9.806;2023-04-10T10:26:42;29.80;55.30
19348;DHT22;9810;52.480;9.806;2023-04-10T10:29:10;29.90;56.00
19348;DHT22;9810;52.480;9.806;2023-04-10T10:31:40;30.10;55.80
19348;DHT22;9810;52.480;9.806;2023-04-10T10:34:08;29.20;55.80
19348;DHT22;9810;52.480;9.806;2023-04-10T10:36:36;29.00;54.10
19348;DHT22;9810;52.480;9.806;2023-04-10T10:39:23;28.40;55.90
19348;DHT22;9810;52.480;9.806;2023-04-10T10:41:59;29.20;56.10
19348;DHT22;9810;52.480;9.806;2023-04-10T10:44:34;30.10;54.80
19348;DHT22;9810;52.480;9.806;2023-04-10T10:47:09;30.40;54.60
19348;DHT22;9810;52.480;9.806;2023-04-10T10:49:54;28.00;53.70
19348;DHT22;9810;52.480;9.806;2023-04-10T10:55:30;27.70;57.10
19348;DHT22;9810;52.480;9.806;2023-04-10T10:58:00;27.20;57.40
19348;DHT22;9810;52.480;9.806;2023-04-10T11:01:05;26.40;55.70
19348;DHT22;9810;52.480;9.806;2023-04-10T11:03:37;25.50;60.00
19348;DHT22;9810;52.480;9.806;2023-04-10T11:06:06;23.50;63.60
19348;DHT22;9810;52.480;9.806;2023-04-10T11:08:36;21.90;67.10
19348;DHT22;9810;52.480;9.806;2023-04-10T11:11:08;21.20;67.40
19348;DHT22;9810;52.480;9.806;2023-04-10T11:13:36;20.50;70.30
19348;DHT22;9810;52.480;9.806;2023-04-10T11:16:05;20.40;73.00
19348;DHT22;9810;52.480;9.806;2023-04-10T11:19:05;20.20;70.90
19348;DHT22;9810;52.480;9.806;2023-04-10T11:21:33;20.30;74.20
19348;DHT22;9810;52.480;9.806;2023-04-10T11:24:02;19.60;72.90
19348;DHT22;9810;52.480;9.806;2023-04-10T11:26:37;18.90;75.20
19348;DHT22;9810;52.480;9.806;2023-04-10T11:29:32;19.40;80.30
19348;DHT22;9810;52.480;9.806;2023-04-10T11:32:01;19.70;76.90
19348;DHT22;9810;52.480;9.806;2023-04-10T11:34:30;19.30;77.70
19348;DHT22;9810;52.480;9.806;2023-04-10T11:36:59;18.90;79.00
19348;DHT22;9810;52.480;9.806;2023-04-10T11:39:29;18.90;76.20
19348;DHT22;9810;52.480;9.806;2023-04-10T11:41:56;19.00;81.30
19348;DHT22;9810;52.480;9.806;2023-04-10T11:44:30;18.90;79.20
19348;DHT22;9810;52.480;9.806;2023-04-10T11:47:00;18.70;80.20
19348;DHT22;9810;52.480;9.806;2023-04-10T11:49:31;18.60;78.60
19348;DHT22;9810;52.480;9.806;2023-04-10T11:51:59;18.80;79.20
19348;DHT22;9810;52.480;9.806;2023-04-10T11:54:28;18.70;81.60
19348;DHT22;9810;52.480;9.806;2023-04-10T11:56:58;18.50;79.20
19348;DHT22;9810;52.480;9.806;2023-04-10T11:59:27;18.80;80.90
19348;DHT22;9810;52.480;9.806;2023-04-10T12:02:04;18.90;83.00
19348;DHT22;9810;52.480;9.806;2023-04-10T12:04:34;18.90;78.50
19348;DHT22;9810;52.480;9.806;2023-04-10T12:07:02;18.70;77.70
19348;DHT22;9810;52.480;9.806;2023-04-10T12:09:29;18.70;74.90
19348;DHT22;9810;52.480;9.806;2023-04-10T12:11:57;19.00;80.20
19348;DHT22;9810;52.480;9.806;2023-04-10T12:14:29;19.10;78.10
19348;DHT22;9810;52.480;9.806;2023-04-10T12:16:56;19.30;79.50
19348;DHT22;9810;52.480;9.806;2023-04-10T12:19:24;18.80;79.30
19348;DHT22;9810;52.480;9.806;2023-04-10T12:21:54;18.80;75.50
19348;DHT22;9810;52.480;9.806;2023-04-10T12:24:41;19.10;78.50
19348;DHT22;9810;52.480;9.806;2023-04-10T12:27:15;19.50;80.50
19348;DHT22;9810;52.480;9.806;2023-04-10T12:29:43;19.10;77.00
19348;DHT22;9810;52.480;9.806;2023-04-10T12:32:10;19.10;76.70
19348;DHT22;9810;52.480;9.806;2023-04-10T12:34:38;18.90;78.10
19348;DHT22;9810;52.480;9.806;2023-04-10T12:37:07;18.70;78.70
19348;DHT22;9810;52.480;9.806;2023-04-10T12:39:35;18.80;80.60
19348;DHT22;9810;52.480;9.806;2023-04-10T12:42:13;18.80;82.80
19348;DHT22;9810;52.480;9.806;2023-04-10T12:44:50;18.90;80.50
19348;DHT22;9810;52.480;9.806;2023-04-10T12:47:18;19.10;82.90
19348;DHT22;9810;52.480;9.806;2023-04-10T12:50:03;19.30;80.10
19348;DHT22;9810;52.480;9.806;2023-04-10T12:52:32;18.80;75.90
19348;DHT22;9810;52.480;9.806;2023-04-10T12:55:10;18.90;76.70
19348;DHT22;9810;52.480;9.806;2023-04-10T12:57:38;18.50;74.40
19348;DHT22;9810;52.480;9.806;2023-04-10T13:00:08;18.80;77.90
19348;DHT22;9810;52.480;9.806;2023-04-10T13:02:35;18.70;75.40
19348;DHT22;9810;52.480;9.806;2023-04-10T13:05:03;18.80;79.30
19348;DHT22;9810;52.480;9.806;2023-04-10T13:07:32;18.50;74.20
19348;DHT22;9810;52.480;9.806;2023-04-10T13:10:00;18.30;74.90
19348;DHT22;9810;52.480;9.806;2023-04-10T13:12:28;18.40;78.40
19348;DHT22;9810;52.480;9.806;2023-04-10T13:14:56;18.40;79.10
19348;DHT22;9810;52.480;9.806;2023-04-10T13:17:24;18.40;79.60
19348;DHT22;9810;52.480;9.806;2023-04-10T13:19:52;18.20;76.70
19348;DHT22;9810;52.480;9.806;2023-04-10T13:22:19;18.40;78.30
19348;DHT22;9810;52.480;9.806;2023-04-10T13:24:48;18.50;79.80
19348;DHT22;9810;52.480;9.806;2023-04-10T13:27:16;18.60;78.80
19348;DHT22;9810;52.480;9.806;2023-04-10T13:29:43;18.70;80.80
19348;DHT22;9810;52.480;9.806;2023-04-10T13:32:11;19.10;81.70
19348;DHT22;9810;52.480;9.806;2023-04-10T13:34:38;19.00;78.80
19348;DHT22;9810;52.480;9.806;2023-04-10T13:37:05;18.60;76.40
19348;DHT22;9810;52.480;9.806;2023-04-10T13:39:32;18.90;81.60
19348;DHT22;9810;52.480;9.806;2023-04-10T13:42:01;18.70;78.50
19348;DHT22;9810;52.480;9.806;2023-04-10T13:44:29;18.90;77.10
19348;DHT22;9810;52.480;9.806;2023-04-10T13:46:56;18.50;78.50
19348;DHT22;9810;52.480;9.806;2023-04-10T13:49:24;18.80;81.10
19348;DHT22;9810;52.480;9.806;2023-04-10T13:51:55;19.00;80.00
19348;DHT22;9810;52.480;9.806;2023-04-10T13:54:22;19.00;83.20
19348;DHT22;9810;52.480;9.806;2023-04-10T13:56:49;18.90;82.10
19348;DHT22;9810;52.480;9.806;2023-04-10T13:59:20;19.00;82.30
19348;DHT22;9810;52.480;9.806;2023-04-10T14:01:48;18.70;80.20
19348;DHT22;9810;52.480;9.806;2023-04-10T14:04:17;18.70;81.30
19348;DHT22;9810;52.480;9.806;2023-04-10T14:06:44;19.10;83.90
19348;DHT22;9810;52.480;9.806;2023-04-10T14:09:11;19.00;85.60
19348;DHT22;9810;52.480;9.806;2023-04-10T14:11:38;19.10;85.20
19348;DHT22;9810;52.480;9.806;2023-04-10T14:14:06;19.20;86.30
19348;DHT22;9810;52.480;9.806;2023-04-10T14:16:35;19.40;84.00
19348;DHT22;9810;52.480;9.806;2023-04-10T14:19:02;19.10;81.50
19348;DHT22;9810;52.480;9.806;2023-04-10T14:21:29;19.20;85.90
19348;DHT22;9810;52.480;9.806;2023-04-10T14:23:57;19.10;84.50
19348;DHT22;9810;52.480;9.806;2023-04-10T14:26:25;19.30;87.80
19348;DHT22;9810;52.480;9.806;2023-04-10T14:28:52;19.10;80.80
19348;DHT22;9810;52.480;9.806;2023-04-10T14:31:19;19.40;87.00
19348;DHT22;9810;52.480;9.806;2023-04-10T14:33:48;18.90;82.20
19348;DHT22;9810;52.480;9.806;2023-04-10T14:36:15;18.90;85.90
19348;DHT22;9810;52.480;9.806;2023-04-10T14:38:42;18.70;87.10
19348;DHT22;9810;52.480;9.806;2023-04-10T14:41:09;18.10;83.30
19348;DHT22;9810;52.480;9.806;2023-04-10T14:43:37;17.90;84.30
19348;DHT22;9810;52.480;9.806;2023-04-10T14:46:05;17.90;85.10
19348;DHT22;9810;52.480;9.806;2023-04-10T14:48:32;18.00;87.90
19348;DHT22;9810;52.480;9.806;2023-04-10T14:51:01;17.90;87.90
19348;DHT22;9810;52.480;9.806;2023-04-10T14:53:30;17.70;87.30
19348;DHT22;9810;52.480;9.806;2023-04-10T14:55:57;18.00;87.30
19348;DHT22;9810;52.480;9.806;2023-04-10T14:58:25;18.00;85.40
19348;DHT22;9810;52.480;9.806;2023-04-10T15:00:52;18.30;85.20
19348;DHT22;9810;52.480;9.806;2023-04-10T15:03:19;18.50;85.30
19348;DHT22;9810;52.480;9.806;2023-04-10T15:05:47;18.10;83.00
19348;DHT22;9810;52.480;9.806;2023-04-10T15:08:16;18.30;85.60
19348;DHT22;9810;52.480;9.806;2023-04-10T15:10:43;18.00;84.90
19348;DHT22;9810;52.480;9.806;2023-04-10T15:13:10;17.90;87.50
19348;DHT22;9810;52.480;9.806;2023-04-10T15:15:38;18.10;85.40
19348;DHT22;9810;52.480;9.806;2023-04-10T15:18:05;17.80;84.80
19348;DHT22;9810;52.480;9.806;2023-04-10T15:20:32;18.00;87.00
19348;DHT22;9810;52.480;9.806;2023-04-10T15:22:59;18.00;88.10
19348;DHT22;9810;52.480;9.806;2023-04-10T15:25:31;18.00;87.70
19348;DHT22;9810;52.480;9.806;2023-04-10T15:27:58;17.90;89.10
19348;DHT22;9810;52.480;9.806;2023-04-10T15:30:26;18.30;88.60
19348;DHT22;9810;52.480;9.806;2023-04-10T15:32:53;18.50;89.20
19348;DHT22;9810;52.480;9.806;2023-04-10T15:35:20;18.60;87.50
19348;DHT22;9810;52.480;9.806;2023-04-10T15:37:49;18.80;86.10
19348;DHT22;9810;52.480;9.806;2023-04-10T15:40:16;19.10;83.50
19348;DHT22;9810;52.480;9.806;2023-04-10T15:42:45;18.70;79.80
19348;DHT22;9810;52.480;9.806;2023-04-10T15:45:12;18.80;77.00
19348;DHT22;9810;52.480;9.806;2023-04-10T15:47:40;18.60;75.70
19348;DHT22;9810;52.480;9.806;2023-04-10T15:50:07;18.50;77.30
19348;DHT22;9810;52.480;9.806;2023-04-10T15:52:35;18.50;80.10
19348;DHT22;9810;52.480;9.806;2023-04-10T15:55:02;18.10;82.30
19348;DHT22;9810;52.480;9.806;2023-04-10T15:57:29;17.60;79.50
19348;DHT22;9810;52.480;9.806;2023-04-10T15:59:58;17.30;79.00
19348;DHT22;9810;52.480;9.806;2023-04-10T16:02:26;17.20;81.10
19348;DHT22;9810;52.480;9.806;2023-04-10T16:04:53;16.90;81.70
19348;DHT22;9810;52.480;9.806;2023-04-10T16:07:21;16.80;82.40
19348;DHT22;9810;52.480;9.806;2023-04-10T16:09:48;16.70;80.50